Time;durP1;ratioP1;P1;durP2;ratioP2;P2;SDS_P1;SDS_P2;PMS_P1;PMS_P2;Temp;Humidity;BMP_temperature;BMP_pressure;BME280_temperature;BME280_humidity;BME280_pressure;Samples;Min_cycle;Max_cycle;Signal;HPM_P1;HPM_P2
2023/05/19 00:01:47;;;;;;;9.32;4.70;;;;;;;;;;5045007;28;20051;-59
2023/05/19 00:04:14;;;;;;;11.52;4.40;;;;;;;;;;5041702;28;20052;-59
2023/05/19 00:06:40;;;;;;;8.77;4.25;;;;;;;;;;5041236;28;20053;-59
2023/05/19 00:09:08;;;;;;;8.15;5.13;;;;;;;;;;5032063;28;20052;-59
2023/05/19 00:11:36;;;;;;;10.10;4.97;;;;;;;;;;5049016;28;20410;-59
2023/05/19 00:14:05;;;;;;;9.05;4.30;;;;;;;;;;5048323;28;20626;-58
2023/05/19 00:16:32;;;;;;;10.30;4.20;;;;;;;;;;5041610;28;20060;-58
2023/05/19 00:18:59;;;;;;;10.73;4.30;;;;;;;;;;5044165;28;20525;-59
2023/05/19 00:21:26;;;;;;;10.18;4.90;;;;;;;;;;5042965;28;20403;-58
2023/05/19 00:23:53;;;;;;;11.60;4.90;;;;;;;;;;5041424;28;20040;-58
2023/05/19 00:26:21;;;;;;;10.18;4.72;;;;;;;;;;5040526;28;20041;-58
2023/05/19 00:28:54;;;;;;;11.10;4.95;;;;;;;;;;5046625;28;20033;-57
2023/05/19 00:31:20;;;;;;;8.95;4.40;;;;;;;;;;5040498;28;20040;-61
2023/05/19 00:33:46;;;;;;;10.68;5.10;;;;;;;;;;5037141;28;20033;-58
2023/05/19 00:36:13;;;;;;;9.05;4.30;;;;;;;;;;5042009;28;20419;-58
2023/05/19 00:38:39;;;;;;;9.75;4.57;;;;;;;;;;5043691;28;20047;-58
2023/05/19 00:41:06;;;;;;;6.78;4.07;;;;;;;;;;5042707;28;20432;-58
2023/05/19 00:43:35;;;;;;;9.40;4.70;;;;;;;;;;5032139;28;20041;-58
2023/05/19 00:46:01;;;;;;;7.95;3.95;;;;;;;;;;5044265;28;20047;-59
2023/05/19 00:48:28;;;;;;;9.50;4.93;;;;;;;;;;5050645;28;20060;-59
2023/05/19 00:51:00;;;;;;;9.40;4.25;;;;;;;;;;5035086;28;20053;-59
2023/05/19 00:53:28;;;;;;;8.43;4.70;;;;;;;;;;5040694;28;20415;-59
2023/05/19 00:55:54;;;;;;;17.45;4.80;;;;;;;;;;5033060;28;20071;-58
2023/05/19 00:58:22;;;;;;;7.85;4.63;;;;;;;;;;5044423;28;20040;-60
2023/05/19 01:00:49;;;;;;;9.73;4.68;;;;;;;;;;5022784;28;20042;-59
2023/05/19 01:03:19;;;;;;;9.57;4.50;;;;;;;;;;5038607;28;20049;-59
2023/05/19 01:05:46;;;;;;;9.32;4.18;;;;;;;;;;5040518;28;20037;-59
2023/05/19 01:08:12;;;;;;;7.15;4.32;;;;;;;;;;5044592;28;20029;-60
2023/05/19 01:10:38;;;;;;;8.27;4.25;;;;;;;;;;5042949;28;20399;-59
2023/05/19 01:13:05;;;;;;;8.63;4.90;;;;;;;;;;5036291;28;20033;-60
2023/05/19 01:15:51;;;;;;;8.70;4.47;;;;;;;;;;5039584;28;20371;-59
2023/05/19 01:18:28;;;;;;;7.47;4.43;;;;;;;;;;5046628;28;20040;-59
2023/05/19 01:21:24;;;;;;;9.52;4.38;;;;;;;;;;5047320;28;20037;-59
2023/05/19 01:24:03;;;;;;;9.90;5.18;;;;;;;;;;5042339;28;20056;-59
2023/05/19 01:26:58;;;;;;;12.07;4.72;;;;;;;;;;5051624;28;20044;-58
2023/05/19 01:29:35;;;;;;;10.95;4.90;;;;;;;;;;5039108;28;20049;-59
2023/05/19 01:32:05;;;;;;;9.45;4.50;;;;;;;;;;5037738;28;20034;-59
2023/05/19 01:34:33;;;;;;;10.02;4.72;;;;;;;;;;5030162;28;20033;-59
2023/05/19 01:37:00;;;;;;;9.45;5.82;;;;;;;;;;5031444;28;20037;-59
2023/05/19 01:39:27;;;;;;;13.48;6.00;;;;;;;;;;5032935;28;20410;-59
2023/05/19 01:41:53;;;;;;;7.10;4.40;;;;;;;;;;5035455;28;20033;-59
2023/05/19 01:44:21;;;;;;;9.18;4.68;;;;;;;;;;5033575;28;20513;-58
2023/05/19 01:46:48;;;;;;;9.32;4.35;;;;;;;;;;5050887;28;20083;-58
2023/05/19 01:49:14;;;;;;;12.00;5.18;;;;;;;;;;5042982;28;20382;-58
2023/05/19 01:51:40;;;;;;;10.15;5.03;;;;;;;;;;5034529;28;20037;-58
2023/05/19 01:54:06;;;;;;;10.73;5.13;;;;;;;;;;5033575;28;20399;-58
2023/05/19 01:56:51;;;;;;;11.18;4.82;;;;;;;;;;5040928;28;20391;-58
2023/05/19 01:59:45;;;;;;;9.45;4.95;;;;;;;;;;5041041;28;20124;-58
2023/05/19 02:02:36;;;;;;;12.23;5.03;;;;;;;;;;5038982;28;20036;-59
2023/05/19 02:05:12;;;;;;;11.23;5.05;;;;;;;;;;5041162;28;20033;-59
2023/05/19 02:07:55;;;;;;;10.48;4.93;;;;;;;;;;5042068;28;20033;-59
2023/05/19 02:10:31;;;;;;;12.80;5.50;;;;;;;;;;5039239;28;20036;-59
2023/05/19 02:13:03;;;;;;;8.13;4.63;;;;;;;;;;5029564;28;20042;-59
2023/05/19 02:15:39;;;;;;;11.38;6.18;;;;;;;;;;5047434;28;20033;-59
2023/05/19 02:18:08;;;;;;;11.80;5.28;;;;;;;;;;5045779;28;20379;-59
2023/05/19 02:20:35;;;;;;;11.15;4.85;;;;;;;;;;5045284;28;20048;-58
2023/05/19 02:23:01;;;;;;;9.85;4.88;;;;;;;;;;5039368;28;20038;-59
2023/05/19 02:25:27;;;;;;;11.45;5.90;;;;;;;;;;5042476;28;20036;-59
2023/05/19 02:27:53;;;;;;;13.77;5.38;;;;;;;;;;5040201;28;20036;-59
2023/05/19 02:30:19;;;;;;;12.77;5.50;;;;;;;;;;5041584;28;20045;-59
2023/05/19 02:32:46;;;;;;;8.63;5.03;;;;;;;;;;5040034;28;20124;-59
2023/05/19 02:35:13;;;;;;;8.02;4.88;;;;;;;;;;5036748;28;20037;-59
2023/05/19 02:37:39;;;;;;;10.05;4.75;;;;;;;;;;5033219;28;20052;-60
2023/05/19 02:40:06;;;;;;;11.48;5.13;;;;;;;;;;5041292;28;20045;-60
2023/05/19 02:42:33;;;;;;;10.15;4.80;;;;;;;;;;5037829;28;20037;-60
2023/05/19 02:44:59;;;;;;;9.30;4.90;;;;;;;;;;5036385;28;20041;-60
2023/05/19 02:47:25;;;;;;;10.85;5.15;;;;;;;;;;5052889;28;20056;-60
2023/05/19 02:49:51;;;;;;;13.65;5.70;;;;;;;;;;5045368;28;20093;-60
2023/05/19 02:52:17;;;;;;;10.55;5.20;;;;;;;;;;5037561;28;20436;-60
2023/05/19 02:54:44;;;;;;;10.57;5.70;;;;;;;;;;5037551;28;20029;-60
2023/05/19 02:57:10;;;;;;;10.15;5.13;;;;;;;;;;5042772;28;20049;-60
2023/05/19 02:59:36;;;;;;;11.30;5.80;;;;;;;;;;5007774;28;20041;-60
2023/05/19 03:02:02;;;;;;;10.02;5.13;;;;;;;;;;5044848;28;20048;-60
2023/05/19 03:04:30;;;;;;;13.82;5.32;;;;;;;;;;5038015;28;20029;-60
2023/05/19 03:06:56;;;;;;;9.77;4.82;;;;;;;;;;5034237;28;20036;-60
2023/05/19 03:09:22;;;;;;;10.57;5.35;;;;;;;;;;5040205;28;20049;-60
2023/05/19 03:11:49;;;;;;;11.77;4.97;;;;;;;;;;5032875;28;20045;-60
2023/05/19 03:14:15;;;;;;;11.13;5.47;;;;;;;;;;5040015;28;20048;-60
2023/05/19 03:16:41;;;;;;;15.18;5.50;;;;;;;;;;5043322;28;20044;-61
2023/05/19 03:19:08;;;;;;;8.65;5.30;;;;;;;;;;5041847;28;20036;-60
2023/05/19 03:21:34;;;;;;;10.43;5.05;;;;;;;;;;5041396;28;20044;-60
2023/05/19 03:24:00;;;;;;;9.70;5.13;;;;;;;;;;5047566;28;20387;-60
2023/05/19 03:26:28;;;;;;;13.00;5.25;;;;;;;;;;5041735;28;20044;-60
2023/05/19 03:28:55;;;;;;;12.75;5.35;;;;;;;;;;5040287;28;20057;-60
2023/05/19 03:31:21;;;;;;;15.23;6.40;;;;;;;;;;5031894;28;20045;-60
2023/05/19 03:33:47;;;;;;;12.27;5.28;;;;;;;;;;5038124;28;20363;-61
2023/05/19 03:36:14;;;;;;;10.73;5.75;;;;;;;;;;5035006;28;20052;-60
2023/05/19 03:38:40;;;;;;;15.50;5.80;;;;;;;;;;5037682;28;20053;-60
2023/05/19 03:41:06;;;;;;;13.88;5.50;;;;;;;;;;5041732;28;20390;-60
2023/05/19 03:43:33;;;;;;;12.18;5.78;;;;;;;;;;5051552;28;20044;-60
2023/05/19 03:46:04;;;;;;;13.05;5.57;;;;;;;;;;5044800;28;20386;-60
2023/05/19 03:48:51;;;;;;;11.30;5.30;;;;;;;;;;5045393;28;20843;-60
2023/05/19 03:51:17;;;;;;;14.65;5.80;;;;;;;;;;5040957;28;20398;-60
2023/05/19 03:53:44;;;;;;;12.68;5.88;;;;;;;;;;5047789;28;20421;-60
2023/05/19 03:56:12;;;;;;;15.57;5.57;;;;;;;;;;5041226;28;20041;-61
2023/05/19 03:58:42;;;;;;;14.60;6.30;;;;;;;;;;5040213;28;20040;-60
2023/05/19 04:01:08;;;;;;;16.70;6.90;;;;;;;;;;5031150;28;20052;-60
2023/05/19 04:03:34;;;;;;;16.33;5.95;;;;;;;;;;5038839;28;20513;-60
2023/05/19 04:06:02;;;;;;;14.77;6.18;;;;;;;;;;5031444;28;20052;-60
2023/05/19 04:08:28;;;;;;;14.15;6.15;;;;;;;;;;5031989;28;20025;-60
2023/05/19 04:10:55;;;;;;;16.35;5.97;;;;;;;;;;5042565;28;20037;-60
2023/05/19 04:13:21;;;;;;;16.27;6.95;;;;;;;;;;5045430;28;20116;-60
2023/05/19 04:15:48;;;;;;;15.38;6.32;;;;;;;;;;5039450;28;20054;-60
2023/05/19 04:18:14;;;;;;;16.52;6.30;;;;;;;;;;5039608;28;20032;-60
2023/05/19 04:20:40;;;;;;;18.27;6.75;;;;;;;;;;5041693;28;20041;-59
2023/05/19 04:23:07;;;;;;;17.45;6.72;;;;;;;;;;5044481;28;20040;-59
2023/05/19 04:25:35;;;;;;;18.27;6.03;;;;;;;;;;5040194;28;20386;-59
2023/05/19 04:28:01;;;;;;;18.23;6.57;;;;;;;;;;5038003;28;20035;-60
2023/05/19 04:30:28;;;;;;;15.05;6.57;;;;;;;;;;5047308;28;20419;-59
2023/05/19 04:32:56;;;;;;;17.05;6.40;;;;;;;;;;5031896;28;20038;-60
2023/05/19 04:35:23;;;;;;;14.80;5.90;;;;;;;;;;5039329;28;20048;-59
2023/05/19 04:37:53;;;;;;;18.02;6.47;;;;;;;;;;5034215;28;20570;-60
2023/05/19 04:40:22;;;;;;;15.57;5.97;;;;;;;;;;5034125;28;20037;-60
2023/05/19 04:42:51;;;;;;;14.20;6.45;;;;;;;;;;5047721;28;20033;-59
2023/05/19 04:45:17;;;;;;;21.35;6.55;;;;;;;;;;5033190;28;20049;-58
2023/05/19 04:47:46;;;;;;;19.30;6.93;;;;;;;;;;5049600;28;20418;-60
2023/05/19 04:50:13;;;;;;;16.00;6.45;;;;;;;;;;5036553;28;20044;-59
2023/05/19 04:52:41;;;;;;;18.02;6.80;;;;;;;;;;5035273;28;20483;-60
2023/05/19 04:55:10;;;;;;;16.33;6.65;;;;;;;;;;5016754;28;20093;-60
2023/05/19 04:57:36;;;;;;;15.17;6.50;;;;;;;;;;5039789;28;20053;-60
2023/05/19 05:00:06;;;;;;;13.40;5.90;;;;;;;;;;5029086;28;20050;-60
2023/05/19 05:02:37;;;;;;;14.07;6.45;;;;;;;;;;5039263;28;20037;-60
2023/05/19 05:05:04;;;;;;;15.73;6.30;;;;;;;;;;5039533;28;20033;-60
2023/05/19 05:07:30;;;;;;;16.02;6.43;;;;;;;;;;5035248;28;20032;-60
2023/05/19 05:09:56;;;;;;;15.43;6.47;;;;;;;;;;5038166;28;20044;-60
2023/05/19 05:12:23;;;;;;;12.60;5.68;;;;;;;;;;5046148;28;20042;-60
2023/05/19 05:14:50;;;;;;;15.90;5.78;;;;;;;;;;5033109;28;20509;-60
2023/05/19 05:17:17;;;;;;;11.90;5.80;;;;;;;;;;5034375;28;20030;-59
2023/05/19 05:19:44;;;;;;;19.58;6.28;;;;;;;;;;5036490;28;20037;-60
2023/05/19 05:22:11;;;;;;;21.00;7.30;;;;;;;;;;5045783;28;20035;-60
2023/05/19 05:24:39;;;;;;;16.70;6.50;;;;;;;;;;5039835;28;20309;-59
2023/05/19 05:27:07;;;;;;;20.27;7.55;;;;;;;;;;5037087;28;20041;-60
2023/05/19 05:29:33;;;;;;;22.65;8.68;;;;;;;;;;5040857;28;20052;-59
2023/05/19 05:32:01;;;;;;;17.50;6.43;;;;;;;;;;5034910;28;20048;-59
2023/05/19 05:34:28;;;;;;;17.30;7.18;;;;;;;;;;5048826;28;20045;-59
2023/05/19 05:36:55;;;;;;;20.00;6.30;;;;;;;;;;5034701;28;20029;-59
2023/05/19 05:39:21;;;;;;;16.13;7.40;;;;;;;;;;5038265;28;20482;-60
2023/05/19 05:41:48;;;;;;;22.23;7.80;;;;;;;;;;5030467;28;20048;-59
2023/05/19 05:44:15;;;;;;;18.13;7.05;;;;;;;;;;5039854;28;20055;-59
2023/05/19 05:46:43;;;;;;;21.35;7.35;;;;;;;;;;5038709;28;20045;-57
2023/05/19 05:49:11;;;;;;;25.33;7.72;;;;;;;;;;5036429;28;20422;-59
2023/05/19 05:51:39;;;;;;;19.38;6.85;;;;;;;;;;5028104;28;20487;-58
2023/05/19 05:54:10;;;;;;;16.10;7.22;;;;;;;;;;5042228;28;20037;-59
2023/05/19 05:56:41;;;;;;;19.85;7.53;;;;;;;;;;5037166;28;20076;-59
2023/05/19 05:59:08;;;;;;;22.90;7.55;;;;;;;;;;5028132;28;20056;-59
2023/05/19 06:01:35;;;;;;;15.68;6.72;;;;;;;;;;5029472;28;20403;-59
2023/05/19 06:04:02;;;;;;;22.15;8.00;;;;;;;;;;5028381;28;20037;-61
2023/05/19 06:06:30;;;;;;;18.98;7.65;;;;;;;;;;5039616;28;20049;-58
2023/05/19 06:08:56;;;;;;;22.83;7.47;;;;;;;;;;5029255;28;20136;-59
2023/05/19 06:11:24;;;;;;;18.75;7.30;;;;;;;;;;5035885;28;20030;-59
2023/05/19 06:13:51;;;;;;;15.32;7.30;;;;;;;;;;5032188;28;20050;-59
2023/05/19 06:16:35;;;;;;;17.60;7.00;;;;;;;;;;5033681;28;20037;-60
2023/05/19 06:19:01;;;;;;;20.40;7.72;;;;;;;;;;5035729;28;20025;-59
2023/05/19 06:21:28;;;;;;;19.65;7.00;;;;;;;;;;5028767;28;20075;-59
2023/05/19 06:23:55;;;;;;;24.58;7.72;;;;;;;;;;5020692;28;20032;-59
2023/05/19 06:26:21;;;;;;;15.52;6.63;;;;;;;;;;5037596;28;20041;-59
2023/05/19 06:28:48;;;;;;;19.13;7.10;;;;;;;;;;5043575;28;20032;-59
2023/05/19 06:31:15;;;;;;;21.55;7.03;;;;;;;;;;5032736;28;20052;-59
2023/05/19 06:33:53;;;;;;;23.83;7.43;;;;;;;;;;5038142;28;20041;-59
2023/05/19 06:36:20;;;;;;;15.60;6.47;;;;;;;;;;5041242;28;20049;-59
2023/05/19 06:38:47;;;;;;;14.73;6.43;;;;;;;;;;5035142;28;20037;-60
2023/05/19 06:41:14;;;;;;;22.98;7.00;;;;;;;;;;5039259;28;20040;-59
2023/05/19 06:43:41;;;;;;;20.48;7.75;;;;;;;;;;5033364;28;20375;-59
2023/05/19 06:46:13;;;;;;;21.42;7.32;;;;;;;;;;5039253;28;20048;-59
2023/05/19 06:48:40;;;;;;;17.70;7.45;;;;;;;;;;5043371;28;20056;-59
2023/05/19 06:51:09;;;;;;;17.95;7.13;;;;;;;;;;5043215;28;20056;-59
2023/05/19 06:53:36;;;;;;;;;;;;;;;;;;5038753;28;20038;-59
2023/05/19 06:56:07;;;;;;;22.33;8.10;;;;;;;;;;5045508;28;19909;-58
2023/05/19 06:58:35;;;;;;;23.08;7.53;;;;;;;;;;5036689;28;20536;-59
2023/05/19 07:01:05;;;;;;;17.58;7.40;;;;;;;;;;5031729;28;21179;-59
2023/05/19 07:03:36;;;;;;;21.90;8.32;;;;;;;;;;5041790;28;20036;-60
2023/05/19 07:06:03;;;;;;;18.38;8.32;;;;;;;;;;5045658;28;20033;-60
2023/05/19 07:08:30;;;;;;;16.02;7.28;;;;;;;;;;5036761;28;20471;-59
2023/05/19 07:11:00;;;;;;;17.25;7.35;;;;;;;;;;5034435;28;20048;-59
2023/05/19 07:13:26;;;;;;;22.85;7.07;;;;;;;;;;5040845;28;20033;-60
2023/05/19 07:15:56;;;;;;;20.33;7.15;;;;;;;;;;5051879;28;20044;-59
2023/05/19 07:18:24;;;;;;;16.88;7.30;;;;;;;;;;5044331;28;20070;-60
2023/05/19 07:20:52;;;;;;;18.27;7.30;;;;;;;;;;5033961;28;20056;-59
2023/05/19 07:23:20;;;;;;;21.40;7.28;;;;;;;;;;5042625;28;20520;-59
2023/05/19 07:25:47;;;;;;;17.35;7.38;;;;;;;;;;5045459;28;20033;-59
2023/05/19 07:28:13;;;;;;;26.75;8.63;;;;;;;;;;5053740;28;20033;-59
2023/05/19 07:30:40;;;;;;;18.33;8.70;;;;;;;;;;5052449;28;20060;-59
2023/05/19 07:33:07;;;;;;;20.45;7.63;;;;;;;;;;5034529;28;20593;-59
2023/05/19 07:35:33;;;;;;;20.02;7.70;;;;;;;;;;5045738;28;20029;-59
2023/05/19 07:37:59;;;;;;;17.17;8.02;;;;;;;;;;5040016;28;20513;-59
2023/05/19 07:40:25;;;;;;;17.70;7.60;;;;;;;;;;5031957;28;20052;-59
2023/05/19 07:42:52;;;;;;;15.40;7.70;;;;;;;;;;5045377;28;20029;-59
2023/05/19 07:45:18;;;;;;;26.65;10.43;;;;;;;;;;5040546;28;20035;-59
2023/05/19 07:47:45;;;;;;;19.58;8.25;;;;;;;;;;5029597;28;20029;-59
2023/05/19 07:50:11;;;;;;;13.85;5.45;;;;;;;;;;5040705;28;20044;-58
2023/05/19 07:52:37;;;;;;;29.40;8.48;;;;;;;;;;5042775;28;20040;-59
2023/05/19 07:55:04;;;;;;;17.65;8.65;;;;;;;;;;5040863;28;20048;-58
2023/05/19 07:57:31;;;;;;;33.33;9.10;;;;;;;;;;5034485;28;20036;-60
2023/05/19 07:59:57;;;;;;;15.27;7.03;;;;;;;;;;5040374;28;20033;-59
2023/05/19 08:02:24;;;;;;;25.13;8.43;;;;;;;;;;5041540;28;20025;-60
2023/05/19 08:04:50;;;;;;;18.65;9.13;;;;;;;;;;5044251;28;20041;-59
2023/05/19 08:07:16;;;;;;;16.90;8.38;;;;;;;;;;5039587;28;20047;-60
2023/05/19 08:09:43;;;;;;;25.77;10.57;;;;;;;;;;5046563;28;20402;-59
2023/05/19 08:12:09;;;;;;;26.35;10.45;;;;;;;;;;5041244;28;20032;-59
2023/05/19 08:14:36;;;;;;;18.92;8.75;;;;;;;;;;5040132;28;20053;-59
2023/05/19 08:17:02;;;;;;;22.65;9.15;;;;;;;;;;5040282;28;20042;-59
2023/05/19 08:19:28;;;;;;;22.27;9.00;;;;;;;;;;5039473;28;20029;-59
2023/05/19 08:21:55;;;;;;;31.10;11.00;;;;;;;;;;5033775;28;20052;-60
2023/05/19 08:24:21;;;;;;;29.42;10.32;;;;;;;;;;5039918;28;20026;-59
2023/05/19 08:26:47;;;;;;;25.90;10.65;;;;;;;;;;5038649;28;20029;-59
2023/05/19 08:29:13;;;;;;;20.55;10.10;;;;;;;;;;5044071;28;20049;-59
2023/05/19 08:31:39;;;;;;;22.90;9.93;;;;;;;;;;5037026;28;20036;-58
2023/05/19 08:34:05;;;;;;;23.88;9.02;;;;;;;;;;5035793;28;20045;-58
2023/05/19 08:36:32;;;;;;;22.95;9.15;;;;;;;;;;5040320;28;20491;-58
2023/05/19 08:38:59;;;;;;;30.02;10.00;;;;;;;;;;5032217;28;20473;-58
2023/05/19 08:41:25;;;;;;;25.50;9.40;;;;;;;;;;5047330;28;20033;-59
2023/05/19 08:43:51;;;;;;;26.33;9.05;;;;;;;;;;5039322;28;20036;-58
2023/05/19 08:46:20;;;;;;;27.08;9.45;;;;;;;;;;5042925;28;20041;-58
2023/05/19 08:48:47;;;;;;;21.55;9.02;;;;;;;;;;5044681;28;20045;-59
2023/05/19 08:51:25;;;;;;;24.15;9.57;;;;;;;;;;5040338;28;20059;-59
2023/05/19 08:53:59;;;;;;;20.23;9.93;;;;;;;;;;5040896;28;20048;-59
2023/05/19 08:56:25;;;;;;;20.70;8.75;;;;;;;;;;5040127;28;20029;-58
2023/05/19 08:58:52;;;;;;;20.08;8.82;;;;;;;;;;5049625;28;20048;-58
2023/05/19 09:01:21;;;;;;;24.90;9.02;;;;;;;;;;5036268;28;20049;-58
2023/05/19 09:03:48;;;;;;;21.27;8.50;;;;;;;;;;5042228;28;20085;-59
2023/05/19 09:06:14;;;;;;;19.92;8.20;;;;;;;;;;5037128;28;20060;-59
2023/05/19 09:08:41;;;;;;;20.27;8.82;;;;;;;;;;5040144;28;20498;-58
2023/05/19 09:11:08;;;;;;;29.88;8.98;;;;;;;;;;5031186;28;20108;-59
2023/05/19 09:13:35;;;;;;;26.67;9.93;;;;;;;;;;5033139;28;20033;-57
2023/05/19 09:16:01;;;;;;;23.00;8.40;;;;;;;;;;5044380;28;20029;-59
2023/05/19 09:18:28;;;;;;;20.13;9.20;;;;;;;;;;5040427;28;20060;-58
2023/05/19 09:21:01;;;;;;;20.55;8.40;;;;;;;;;;5047082;28;20056;-58
2023/05/19 09:23:29;;;;;;;19.85;8.55;;;;;;;;;;5042946;28;20402;-59
2023/05/19 09:25:56;;;;;;;23.05;10.73;;;;;;;;;;5043252;28;20028;-59
2023/05/19 09:28:29;;;;;;;18.55;8.52;;;;;;;;;;5042332;28;20037;-60
2023/05/19 09:31:02;;;;;;;18.33;8.57;;;;;;;;;;5029798;28;20053;-59
2023/05/19 09:33:32;;;;;;;25.20;9.82;;;;;;;;;;5042994;28;20398;-59
2023/05/19 09:35:59;;;;;;;17.58;9.07;;;;;;;;;;5035466;28;20029;-58
2023/05/19 09:38:26;;;;;;;22.17;9.25;;;;;;;;;;5039071;28;20037;-59
2023/05/19 09:40:56;;;;;;;19.98;8.18;;;;;;;;;;5038277;28;20415;-58
2023/05/19 09:43:22;;;;;;;;;;;;;;;;;;5031447;28;20403;-58
2023/05/19 09:45:54;;;;;;;22.63;9.05;;;;;;;;;;5043392;28;19923;-60
2023/05/19 09:48:20;;;;;;;25.25;9.07;;;;;;;;;;5045502;28;20040;-59
2023/05/19 09:50:47;;;;;;;26.58;10.05;;;;;;;;;;5042976;28;20033;-59
2023/05/19 09:53:14;;;;;;;20.95;9.00;;;;;;;;;;5039028;28;20033;-59
2023/05/19 09:55:41;;;;;;;18.45;9.30;;;;;;;;;;5030960;28;20052;-60
2023/05/19 09:58:09;;;;;;;20.20;9.05;;;;;;;;;;5035306;28;20040;-58
2023/05/19 10:00:37;;;;;;;23.65;8.82;;;;;;;;;;5026405;28;20056;-58
2023/05/19 10:03:04;;;;;;;20.13;8.48;;;;;;;;;;5030050;28;20037;-58
2023/05/19 10:05:30;;;;;;;20.30;8.38;;;;;;;;;;5045143;28;20052;-58
2023/05/19 10:07:57;;;;;;;23.83;8.90;;;;;;;;;;5038598;28;20522;-59
2023/05/19 10:10:23;;;;;;;25.50;8.05;;;;;;;;;;5036428;28;20044;-60
2023/05/19 10:12:50;;;;;;;22.42;8.60;;;;;;;;;;5042776;28;20033;-60
2023/05/19 10:15:18;;;;;;;23.63;8.75;;;;;;;;;;5049337;28;20043;-60
2023/05/19 10:17:45;;;;;;;20.38;8.60;;;;;;;;;;5013522;28;20479;-59
2023/05/19 10:20:12;;;;;;;18.00;7.65;;;;;;;;;;5038957;28;20037;-59
2023/05/19 10:22:44;;;;;;;16.77;8.25;;;;;;;;;;5043386;28;20029;-59
2023/05/19 10:25:14;;;;;;;17.98;8.38;;;;;;;;;;5034836;28;20033;-59
2023/05/19 10:27:56;;;;;;;21.08;8.23;;;;;;;;;;5034492;28;20041;-59
2023/05/19 10:30:28;;;;;;;23.17;8.20;;;;;;;;;;5037678;28;20049;-58
2023/05/19 10:32:56;;;;;;;20.92;8.93;;;;;;;;;;5030718;28;20135;-59
2023/05/19 10:35:56;;;;;;;20.30;8.43;;;;;;;;;;5041347;28;20040;-59
2023/05/19 10:38:41;;;;;;;21.00;8.35;;;;;;;;;;5044223;28;20037;-59
2023/05/19 10:41:22;;;;;;;24.85;8.90;;;;;;;;;;5044782;28;20041;-59
2023/05/19 10:44:03;;;;;;;25.92;8.57;;;;;;;;;;5058867;28;20049;-59
2023/05/19 10:46:30;;;;;;;15.27;8.20;;;;;;;;;;5052618;28;20044;-59
2023/05/19 10:48:56;;;;;;;22.63;8.30;;;;;;;;;;5046498;28;20032;-59
2023/05/19 10:51:32;;;;;;;20.05;8.88;;;;;;;;;;5042824;28;20360;-59
2023/05/19 10:54:09;;;;;;;21.00;9.20;;;;;;;;;;5043204;28;20045;-59
2023/05/19 10:56:41;;;;;;;22.00;8.13;;;;;;;;;;5050112;28;20059;-59
2023/05/19 10:59:27;;;;;;;23.48;9.85;;;;;;;;;;5041634;28;20045;-59
2023/05/19 11:01:53;;;;;;;29.83;8.57;;;;;;;;;;5034306;28;20037;-59
2023/05/19 11:04:38;;;;;;;25.15;8.70;;;;;;;;;;5048911;28;20032;-60
2023/05/19 11:07:04;;;;;;;18.60;8.40;;;;;;;;;;5052892;28;20041;-59
2023/05/19 11:09:32;;;;;;;24.77;9.10;;;;;;;;;;5037030;28;20052;-59
2023/05/19 11:12:02;;;;;;;20.45;8.68;;;;;;;;;;5046760;28;20056;-59
2023/05/19 11:14:30;;;;;;;18.40;8.02;;;;;;;;;;5037364;28;20044;-59
2023/05/19 11:16:58;;;;;;;14.70;7.60;;;;;;;;;;5043571;28;20041;-59
2023/05/19 11:19:24;;;;;;;17.83;7.78;;;;;;;;;;5045748;28;20064;-59
2023/05/19 11:21:53;;;;;;;15.40;8.13;;;;;;;;;;5046228;28;20402;-59
2023/05/19 11:24:49;;;;;;;38.42;15.20;;;;;;;;;;5044957;28;20029;-60
2023/05/19 11:27:25;;;;;;;18.48;8.90;;;;;;;;;;5032765;28;20067;-60
2023/05/19 11:29:53;;;;;;;15.85;7.90;;;;;;;;;;5034720;28;20029;-59
2023/05/19 11:32:21;;;;;;;18.60;8.02;;;;;;;;;;5051978;28;20049;-60
2023/05/19 11:34:48;;;;;;;16.65;7.80;;;;;;;;;;5038413;28;20113;-60
2023/05/19 11:37:15;;;;;;;20.00;7.90;;;;;;;;;;5036558;28;20037;-60
2023/05/19 11:39:42;;;;;;;15.52;7.72;;;;;;;;;;5045309;28;20070;-60
2023/05/19 11:42:11;;;;;;;16.30;7.90;;;;;;;;;;5043858;28;20037;-59
2023/05/19 11:44:40;;;;;;;13.35;7.28;;;;;;;;;;5019158;28;20041;-59
2023/05/19 11:47:07;;;;;;;17.58;7.65;;;;;;;;;;5057425;28;20701;-60
2023/05/19 11:49:33;;;;;;;16.10;8.07;;;;;;;;;;5044005;28;20036;-59
2023/05/19 11:52:01;;;;;;;22.88;10.57;;;;;;;;;;5043519;28;20037;-59
2023/05/19 11:54:32;;;;;;;32.60;15.80;;;;;;;;;;5040465;28;20046;-60
2023/05/19 11:57:02;;;;;;;19.08;9.55;;;;;;;;;;5044285;28;20037;-60
2023/05/19 11:59:30;;;;;;;15.73;8.85;;;;;;;;;;5044004;28;20049;-59
2023/05/19 12:02:01;;;;;;;16.90;9.80;;;;;;;;;;5037970;28;20037;-60
2023/05/19 12:04:27;;;;;;;23.95;11.65;;;;;;;;;;5036725;28;20040;-60
2023/05/19 12:06:53;;;;;;;21.10;11.70;;;;;;;;;;5042267;28;20048;-60
2023/05/19 12:09:22;;;;;;;21.83;11.90;;;;;;;;;;5043134;28;20398;-59
2023/05/19 12:11:50;;;;;;;21.00;10.40;;;;;;;;;;5035610;28;20037;-59
2023/05/19 12:14:17;;;;;;;18.27;10.05;;;;;;;;;;5052208;28;20494;-60
2023/05/19 12:16:43;;;;;;;18.50;9.40;;;;;;;;;;5035375;28;20068;-59
2023/05/19 12:19:09;;;;;;;21.85;9.20;;;;;;;;;;5044612;28;20049;-59
2023/05/19 12:21:36;;;;;;;22.42;9.32;;;;;;;;;;5040962;28;20029;-59
2023/05/19 12:24:04;;;;;;;18.50;8.93;;;;;;;;;;5040177;28;20040;-60
2023/05/19 12:26:30;;;;;;;21.50;8.40;;;;;;;;;;5043851;28;20032;-59
2023/05/19 12:28:57;;;;;;;16.63;9.38;;;;;;;;;;5044695;28;20422;-59
2023/05/19 12:31:24;;;;;;;20.30;8.90;;;;;;;;;;5033578;28;20506;-60
2023/05/19 12:33:51;;;;;;;17.00;8.43;;;;;;;;;;5041083;28;20044;-60
2023/05/19 12:36:17;;;;;;;33.15;13.88;;;;;;;;;;5031306;28;20029;-59
2023/05/19 12:38:44;;;;;;;48.92;14.48;;;;;;;;;;5046752;28;20052;-59
2023/05/19 12:41:14;;;;;;;54.95;14.00;;;;;;;;;;5041730;28;20522;-59
2023/05/19 12:43:40;;;;;;;27.90;11.48;;;;;;;;;;5039403;28;20506;-59
2023/05/19 12:46:12;;;;;;;40.28;13.30;;;;;;;;;;5041335;28;20029;-59
2023/05/19 12:48:42;;;;;;;50.67;15.73;;;;;;;;;;5045429;28;20503;-59
2023/05/19 12:51:09;;;;;;;42.40;14.63;;;;;;;;;;5038737;28;20506;-59
2023/05/19 12:53:36;;;;;;;31.85;13.35;;;;;;;;;;5040325;28;20057;-59
2023/05/19 12:56:11;;;;;;;15.98;9.35;;;;;;;;;;5048014;28;20025;-59
2023/05/19 12:58:38;;;;;;;19.70;10.80;;;;;;;;;;5030087;28;20053;-59
2023/05/19 13:01:06;;;;;;;19.65;9.55;;;;;;;;;;5042245;28;20029;-60
2023/05/19 13:03:38;;;;;;;20.08;10.43;;;;;;;;;;5040366;28;20493;-59
2023/05/19 13:06:05;;;;;;;30.38;16.08;;;;;;;;;;5031561;28;20049;-59
2023/05/19 13:08:31;;;;;;;26.02;11.48;;;;;;;;;;5032682;28;20033;-59
2023/05/19 13:10:58;;;;;;;21.50;10.15;;;;;;;;;;5042521;28;20033;-60
2023/05/19 13:13:24;;;;;;;18.48;9.80;;;;;;;;;;5042748;28;20048;-58
2023/05/19 13:15:50;;;;;;;18.98;8.68;;;;;;;;;;5042892;28;20048;-58
2023/05/19 13:18:16;;;;;;;18.90;9.05;;;;;;;;;;5048528;28;20029;-57
2023/05/19 13:20:44;;;;;;;20.85;9.85;;;;;;;;;;5029699;28;20036;-58
2023/05/19 13:23:11;;;;;;;23.30;10.10;;;;;;;;;;5037965;28;20044;-59
2023/05/19 13:25:37;;;;;;;25.20;13.05;;;;;;;;;;5036076;28;20371;-58
2023/05/19 13:28:04;;;;;;;28.08;10.63;;;;;;;;;;5038099;28;20033;-58
2023/05/19 13:30:32;;;;;;;22.45;9.73;;;;;;;;;;5030443;28;20037;-58
2023/05/19 13:32:58;;;;;;;22.35;9.77;;;;;;;;;;5039922;28;20046;-59
2023/05/19 13:35:24;;;;;;;20.38;9.35;;;;;;;;;;5045140;28;20044;-58
2023/05/19 13:37:50;;;;;;;21.48;10.00;;;;;;;;;;5035541;28;20518;-59
2023/05/19 13:40:17;;;;;;;19.77;9.70;;;;;;;;;;5046858;28;20387;-58
2023/05/19 13:42:44;;;;;;;21.00;10.15;;;;;;;;;;5040145;28;20040;-59
2023/05/19 13:45:11;;;;;;;19.38;9.68;;;;;;;;;;5038218;28;20391;-60
2023/05/19 13:47:37;;;;;;;19.73;8.77;;;;;;;;;;5048806;28;20045;-59
2023/05/19 13:50:04;;;;;;;14.80;8.77;;;;;;;;;;5050120;28;20032;-59
2023/05/19 13:52:31;;;;;;;19.52;8.20;;;;;;;;;;5044484;28;20044;-58
2023/05/19 13:54:57;;;;;;;16.77;9.10;;;;;;;;;;5031123;28;20044;-59
2023/05/19 13:57:25;;;;;;;18.02;8.68;;;;;;;;;;5031032;28;20475;-59
2023/05/19 13:59:52;;;;;;;15.80;8.88;;;;;;;;;;5032565;28;20048;-59
2023/05/19 14:02:18;;;;;;;26.27;9.38;;;;;;;;;;5038264;28;20025;-58
2023/05/19 14:04:46;;;;;;;18.70;9.68;;;;;;;;;;5032976;28;20626;-59
2023/05/19 14:07:12;;;;;;;19.40;8.48;;;;;;;;;;5037843;28;20395;-61
2023/05/19 14:09:38;;;;;;;20.08;8.55;;;;;;;;;;5039613;28;20045;-59
2023/05/19 14:12:05;;;;;;;23.50;9.38;;;;;;;;;;5043414;28;20364;-59
2023/05/19 14:14:31;;;;;;;22.95;10.18;;;;;;;;;;5038269;28;20424;-59
2023/05/19 14:16:57;;;;;;;21.05;9.93;;;;;;;;;;5039524;28;20052;-60
2023/05/19 14:19:28;;;;;;;19.65;9.02;;;;;;;;;;5033715;28;20045;-59
2023/05/19 14:21:57;;;;;;;22.08;9.23;;;;;;;;;;5038040;28;20401;-60
2023/05/19 14:24:24;;;;;;;26.38;9.90;;;;;;;;;;5042946;28;20045;-59
2023/05/19 14:26:51;;;;;;;18.70;10.50;;;;;;;;;;5044010;28;20036;-59
2023/05/19 14:29:17;;;;;;;23.13;9.30;;;;;;;;;;5048027;28;20066;-59
2023/05/19 14:31:43;;;;;;;20.60;9.38;;;;;;;;;;5039921;28;20048;-59
2023/05/19 14:34:09;;;;;;;19.05;8.57;;;;;;;;;;5044418;28;20069;-59
2023/05/19 14:36:36;;;;;;;15.52;8.30;;;;;;;;;;5044887;28;20032;-59
2023/05/19 14:39:02;;;;;;;17.70;8.45;;;;;;;;;;5033494;28;20041;-58